Time;durP1;ratioP1;P1;durP2;ratioP2;P2;SDS_P1;SDS_P2;PMS_P1;PMS_P2;Temp;Humidity;BMP_temperature;BMP_pressure;BME280_temperature;BME280_humidity;BME280_pressure;Samples;Min_cycle;Max_cycle;Signal;HPM_P1;HPM_P2
2023/07/15 00:00:34;;;;;;;9.73;5.50;;;;;;;23.69;65.94;99454.59;4968435;28;20087;-89
2023/07/15 00:02:59;;;;;;;9.20;5.95;;;;;;;23.72;65.79;99464.09;4966986;28;20464;-89
2023/07/15 00:05:28;;;;;;;11.27;5.78;;;;;;;23.59;66.21;99453.19;4983554;28;20036;-89
2023/07/15 00:07:55;;;;;;;12.55;5.80;;;;;;;23.58;66.60;99462.59;4983549;28;20385;-89
2023/07/15 00:10:21;;;;;;;7.90;5.85;;;;;;;23.66;66.53;99462.75;4998660;28;20116;-89
2023/07/15 00:12:46;;;;;;;12.13;6.55;;;;;;;23.61;66.25;99458.31;4982716;28;20064;-90
2023/07/15 00:15:12;;;;;;;9.52;5.90;;;;;;;23.67;66.39;99456.13;4972359;28;20603;-89
2023/07/15 00:17:38;;;;;;;8.57;5.68;;;;;;;23.63;66.90;99452.47;4966510;28;20029;-89
2023/07/15 00:20:07;;;;;;;11.38;6.55;;;;;;;23.62;66.59;99459.94;4967594;28;20116;-89
2023/07/15 00:22:34;;;;;;;14.00;5.80;;;;;;;23.64;66.33;99459.56;4982311;28;20104;-90
2023/07/15 00:24:59;;;;;;;9.50;5.80;;;;;;;23.53;66.42;99454.63;4982364;28;20034;-89
2023/07/15 00:27:25;;;;;;;8.98;5.47;;;;;;;23.51;67.41;99473.41;4967098;28;20495;-90
2023/07/15 00:29:51;;;;;;;9.35;6.30;;;;;;;23.46;67.28;99472.84;4966229;28;20034;-90
2023/07/15 00:32:16;;;;;;;12.93;6.07;;;;;;;23.39;67.39;99462.47;4966406;28;20034;-89
2023/07/15 00:34:42;;;;;;;11.55;5.78;;;;;;;23.27;67.66;99463.34;4966154;28;20053;-89
2023/07/15 00:37:07;;;;;;;9.18;6.30;;;;;;;23.26;67.50;99477.41;4966122;28;20046;-89
2023/07/15 00:39:33;;;;;;;12.85;5.75;;;;;;;23.29;66.92;99473.97;4966938;28;20022;-89
2023/07/15 00:42:12;;;;;;;9.90;6.35;;;;;;;23.29;67.20;99468.50;4966078;28;20089;-89
2023/07/15 00:44:37;;;;;;;9.98;6.13;;;;;;;23.34;67.61;99476.47;4966847;28;20037;-89
2023/07/15 00:47:22;;;;;;;7.88;5.78;;;;;;;23.38;67.42;99469.91;4998532;28;20034;-90
2023/07/15 00:49:48;;;;;;;9.07;5.72;;;;;;;23.11;68.23;99462.50;4981317;28;20026;-90
2023/07/15 00:52:14;;;;;;;8.90;5.70;;;;;;;23.10;68.19;99472.69;4968902;28;20034;-89
2023/07/15 00:54:41;;;;;;;10.70;5.55;;;;;;;23.01;68.89;99472.03;4986555;28;20554;-89
2023/07/15 00:57:11;;;;;;;7.40;4.90;;;;;;;22.89;69.27;99475.59;4970148;28;20037;-90
2023/07/15 00:59:39;;;;;;;8.43;5.43;;;;;;;22.86;69.41;99481.78;4985199;28;20033;-89
2023/07/15 01:02:05;;;;;;;8.73;5.72;;;;;;;22.87;68.89;99477.91;4986757;28;20022;-89
2023/07/15 01:04:32;;;;;;;8.10;5.63;;;;;;;22.89;68.49;99469.28;4986968;28;20021;-89
2023/07/15 01:06:58;;;;;;;9.38;5.70;;;;;;;22.94;68.90;99471.81;4985705;28;20022;-90
2023/07/15 01:09:27;;;;;;;9.45;5.70;;;;;;;22.78;69.76;99486.25;4969544;28;20526;-89
2023/07/15 01:11:52;;;;;;;12.75;5.53;;;;;;;22.72;69.60;99476.69;4971363;28;20041;-89
2023/07/15 01:14:18;;;;;;;12.98;5.72;;;;;;;22.66;70.25;99480.00;4986166;28;20054;-89
2023/07/15 01:16:47;;;;;;;12.15;5.90;;;;;;;22.65;69.88;99465.50;4970085;28;20060;-90
2023/07/15 01:19:13;;;;;;;10.07;6.35;;;;;;;22.74;70.04;99488.13;4986448;28;20060;-90
2023/07/15 01:21:38;;;;;;;10.30;6.45;;;;;;;22.68;70.66;99477.72;4969523;28;20480;-90
2023/07/15 01:24:06;;;;;;;10.73;6.20;;;;;;;22.60;70.46;99488.50;4969080;28;20030;-89
2023/07/15 01:26:32;;;;;;;9.82;6.20;;;;;;;22.55;70.59;99482.44;4969862;28;20076;-89
2023/07/15 01:28:58;;;;;;;13.18;7.47;;;;;;;22.62;70.74;99484.59;4969265;28;20025;-89
2023/07/15 01:31:23;;;;;;;9.90;6.72;;;;;;;22.62;70.71;99477.19;4970419;28;20030;-89
2023/07/15 01:33:49;;;;;;;11.68;7.00;;;;;;;22.64;70.86;99487.78;4969545;28;20056;-89
2023/07/15 01:36:14;;;;;;;14.65;7.68;;;;;;;22.47;71.40;99478.66;4969158;28;20026;-90
2023/07/15 01:38:40;;;;;;;11.80;7.53;;;;;;;22.43;71.80;99486.00;4969040;28;20022;-89
2023/07/15 01:41:06;;;;;;;16.08;8.48;;;;;;;22.47;71.86;99492.38;4991205;28;20035;-89
2023/07/15 01:43:33;;;;;;;10.20;8.32;;;;;;;22.34;72.19;99480.63;4969435;28;20056;-89
2023/07/15 01:45:59;;;;;;;15.40;8.90;;;;;;;22.33;72.53;99478.22;4980963;28;20030;-90
2023/07/15 01:48:25;;;;;;;22.95;9.70;;;;;;;22.37;72.63;99482.72;4987347;28;20419;-90
2023/07/15 01:50:51;;;;;;;13.20;8.60;;;;;;;22.31;72.46;99477.81;4988818;28;20029;-90
2023/07/15 01:53:18;;;;;;;13.55;8.50;;;;;;;22.23;73.02;99478.69;5005853;28;20553;-90
2023/07/15 01:55:44;;;;;;;11.65;7.90;;;;;;;22.28;72.57;99476.53;5005711;28;20066;-90
2023/07/15 01:58:13;;;;;;;15.45;7.68;;;;;;;22.39;72.13;99491.41;4988730;28;20033;-90
2023/07/15 02:00:38;;;;;;;12.13;7.65;;;;;;;22.55;71.66;99487.94;4987382;28;20102;-90
2023/07/15 02:03:04;;;;;;;15.07;7.82;;;;;;;22.70;71.21;99495.47;5003351;28;20030;-90
2023/07/15 02:05:29;;;;;;;10.07;7.57;;;;;;;22.78;70.64;99499.19;5004848;28;20029;-90
2023/07/15 02:08:01;;;;;;;13.27;7.45;;;;;;;22.68;71.36;99495.00;4987884;28;20005;-90
2023/07/15 02:10:31;;;;;;;13.13;7.20;;;;;;;22.54;71.25;99494.56;4988317;28;20007;-90
2023/07/15 02:12:57;;;;;;;18.42;8.43;;;;;;;22.43;71.70;99490.69;5004754;28;20090;-90
2023/07/15 02:15:22;;;;;;;12.85;7.15;;;;;;;22.37;71.46;99496.44;5004617;28;20053;-90
2023/07/15 02:17:48;;;;;;;13.32;7.55;;;;;;;22.24;72.34;99497.56;5003832;28;20431;-90
2023/07/15 02:20:13;;;;;;;13.93;6.95;;;;;;;22.22;72.01;99496.28;4988908;28;20021;-90
2023/07/15 02:22:39;;;;;;;12.82;7.65;;;;;;;22.20;72.47;99524.88;4988167;28;20025;-90
2023/07/15 02:25:05;;;;;;;11.02;6.80;;;;;;;22.12;72.98;99503.84;4988808;28;20036;-90
2023/07/15 02:27:31;;;;;;;14.27;7.22;;;;;;;22.15;72.91;99508.63;4988021;28;20112;-89
2023/07/15 02:29:58;;;;;;;14.45;7.80;;;;;;;22.18;72.57;99502.47;4988874;28;20117;-90
2023/07/15 02:32:42;;;;;;;12.50;7.40;;;;;;;22.22;72.53;99507.25;4988211;28;20009;-90
2023/07/15 02:35:08;;;;;;;11.40;6.90;;;;;;;22.14;73.19;99493.31;4987727;28;20499;-90
2023/07/15 02:37:35;;;;;;;14.30;7.75;;;;;;;22.12;72.97;99497.53;4988215;28;20031;-89
2023/07/15 02:40:03;;;;;;;16.15;7.70;;;;;;;22.13;72.64;99508.16;4987363;28;20036;-90
2023/07/15 02:42:29;;;;;;;12.93;7.28;;;;;;;22.08;72.76;99500.19;4987984;28;20040;-90
2023/07/15 02:44:54;;;;;;;12.88;7.38;;;;;;;22.09;72.31;99496.28;4987457;28;20029;-90
2023/07/15 02:47:20;;;;;;;13.02;7.65;;;;;;;22.08;72.32;99508.41;4986953;28;20036;-90
2023/07/15 02:49:45;;;;;;;13.98;7.72;;;;;;;22.09;72.62;99509.19;4988014;28;20458;-91
2023/07/15 02:52:11;;;;;;;9.48;7.15;;;;;;;22.02;72.97;99498.81;4987226;28;20025;-90
2023/07/15 02:54:36;;;;;;;11.38;8.02;;;;;;;21.93;72.91;99487.13;4987546;28;20052;-90
2023/07/15 02:57:02;;;;;;;13.68;7.50;;;;;;;21.95;72.82;99498.56;4987877;28;20029;-90
2023/07/15 02:59:27;;;;;;;12.55;7.45;;;;;;;21.94;72.91;99495.03;4987599;28;20029;-90
2023/07/15 03:01:53;;;;;;;13.13;7.45;;;;;;;21.93;72.74;99485.19;4987322;28;20025;-90
2023/07/15 03:04:18;;;;;;;18.05;7.90;;;;;;;22.12;72.87;99509.31;4988020;28;20025;-90
2023/07/15 03:06:44;;;;;;;10.73;8.30;;;;;;;21.91;73.24;99483.94;4987564;28;20025;-90
2023/07/15 03:09:11;;;;;;;11.73;8.07;;;;;;;22.06;72.46;99494.22;5002720;28;20120;-90
2023/07/15 03:11:40;;;;;;;11.52;7.10;;;;;;;22.02;73.34;99500.72;4987509;28;20068;-90
2023/07/15 03:14:05;;;;;;;11.10;7.57;;;;;;;22.00;73.10;99501.09;4987674;28;20057;-89
2023/07/15 03:16:30;;;;;;;9.85;7.13;;;;;;;22.10;73.05;99511.59;4986930;28;20026;-89
2023/07/15 03:18:56;;;;;;;15.48;7.93;;;;;;;22.18;72.37;99501.63;4986129;28;20021;-90
2023/07/15 03:21:22;;;;;;;15.20;8.00;;;;;;;22.26;72.80;99511.72;4986420;28;20033;-90
2023/07/15 03:23:49;;;;;;;16.83;8.00;;;;;;;22.26;72.42;99510.94;4986884;28;20029;-90
2023/07/15 03:26:15;;;;;;;12.07;6.85;;;;;;;22.23;72.40;99498.72;4987086;28;20029;-90
2023/07/15 03:28:40;;;;;;;11.88;6.88;;;;;;;22.21;72.39;99509.19;4987236;28;20040;-89
2023/07/15 03:31:06;;;;;;;12.43;7.45;;;;;;;22.13;73.00;99508.16;4986572;28;20025;-90
2023/07/15 03:33:31;;;;;;;16.67;8.75;;;;;;;22.15;72.69;99516.06;4986180;28;20045;-90
2023/07/15 03:35:59;;;;;;;16.63;7.63;;;;;;;22.16;72.32;99523.13;4986648;28;20025;-90
2023/07/15 03:38:25;;;;;;;14.68;7.85;;;;;;;22.17;72.81;99516.50;4987520;28;20021;-90
2023/07/15 03:40:50;;;;;;;13.57;8.43;;;;;;;22.24;72.67;99522.25;4986811;28;20135;-90
2023/07/15 03:43:17;;;;;;;17.52;7.78;;;;;;;22.18;72.51;99515.34;4986240;28;20087;-90
2023/07/15 03:45:42;;;;;;;12.57;7.47;;;;;;;22.32;72.16;99528.78;4986385;28;20495;-90
2023/07/15 03:48:08;;;;;;;16.85;6.68;;;;;;;22.33;71.24;99528.44;4985919;28;20033;-90
2023/07/15 03:50:35;;;;;;;17.20;7.20;;;;;;;22.34;71.10;99534.72;4986145;28;20025;-89
2023/07/15 03:53:00;;;;;;;9.90;6.57;;;;;;;22.37;70.98;99531.25;4985421;28;20190;-90
2023/07/15 03:55:26;;;;;;;15.75;7.13;;;;;;;22.44;71.23;99544.44;4985110;28;20079;-90
2023/07/15 03:57:52;;;;;;;10.43;7.15;;;;;;;22.39;70.97;99535.28;5002123;28;20021;-90
2023/07/15 04:00:17;;;;;;;12.23;6.63;;;;;;;22.26;71.62;99536.41;4985265;28;20024;-89
2023/07/15 04:02:49;;;;;;;15.23;7.57;;;;;;;22.33;71.64;99542.16;4986941;28;20455;-89
2023/07/15 04:05:15;;;;;;;13.98;7.47;;;;;;;22.38;71.34;99544.66;4987669;28;20029;-89
2023/07/15 04:07:40;;;;;;;10.73;6.63;;;;;;;22.32;71.13;99537.00;4986012;28;20040;-90
2023/07/15 04:10:06;;;;;;;14.20;7.28;;;;;;;22.32;71.51;99543.28;4986265;28;20029;-89
2023/07/15 04:12:32;;;;;;;11.48;6.70;;;;;;;22.30;71.74;99542.81;4987729;28;20033;-89
2023/07/15 04:14:57;;;;;;;16.30;7.20;;;;;;;22.38;71.21;99554.84;4986058;28;20482;-89
2023/07/15 04:17:22;;;;;;;13.43;7.00;;;;;;;22.34;71.12;99554.72;4985760;28;20030;-90
2023/07/15 04:19:48;;;;;;;9.57;5.70;;;;;;;22.38;70.33;99554.84;4986164;28;20056;-89
2023/07/15 04:22:13;;;;;;;14.05;6.35;;;;;;;22.55;70.47;99573.00;4985938;28;20499;-89
2023/07/15 04:24:39;;;;;;;18.77;12.32;;;;;;;22.65;69.47;99561.56;4985200;28;20064;-89
2023/07/15 04:27:05;;;;;;;8.90;6.40;;;;;;;22.85;68.67;99561.75;5000493;28;20041;-89
2023/07/15 04:29:30;;;;;;;10.18;5.38;;;;;;;23.04;68.18;99567.47;4985275;28;20021;-89
2023/07/15 04:31:56;;;;;;;13.95;6.30;;;;;;;23.11;67.98;99570.41;4985486;28;20027;-89
2023/07/15 04:34:22;;;;;;;7.40;5.50;;;;;;;23.12;66.99;99552.81;4986539;28;20044;-90
2023/07/15 04:36:47;;;;;;;12.13;6.00;;;;;;;23.39;66.84;99577.91;4984553;28;20037;-90
2023/07/15 04:39:13;;;;;;;11.38;6.70;;;;;;;23.31;67.87;99563.16;4986388;28;20028;-89
2023/07/15 04:41:38;;;;;;;12.55;5.90;;;;;;;23.27;67.36;99572.44;4985916;28;20040;-90
2023/07/15 04:44:04;;;;;;;8.35;6.20;;;;;;;23.28;67.47;99572.06;4986122;28;20095;-89
2023/07/15 04:46:30;;;;;;;9.55;6.47;;;;;;;23.46;67.24;99574.53;4986134;28;20411;-89
2023/07/15 04:48:55;;;;;;;11.98;6.13;;;;;;;23.55;67.27;99583.44;4985577;28;20026;-89
2023/07/15 04:51:21;;;;;;;10.32;6.43;;;;;;;23.65;66.51;99590.38;5001018;28;20048;-89
2023/07/15 04:53:48;;;;;;;11.30;6.18;;;;;;;23.62;65.66;99563.59;4985246;28;20025;-89
2023/07/15 04:56:14;;;;;;;9.57;5.93;;;;;;;23.80;65.29;99567.63;4984899;28;20029;-90
2023/07/15 04:58:40;;;;;;;21.75;6.13;;;;;;;23.84;64.36;99573.22;4986240;28;20048;-92
2023/07/15 05:01:05;;;;;;;9.05;5.38;;;;;;;24.01;63.13;99561.91;5001899;28;20072;-90
2023/07/15 05:03:35;;;;;;;8.80;4.78;;;;;;;24.22;62.66;99586.41;4985614;28;20026;-89
2023/07/15 05:06:04;;;;;;;10.68;5.57;;;;;;;24.32;62.14;99574.06;5011785;28;20156;-95
2023/07/15 05:08:33;;;;;;;8.73;5.07;;;;;;;24.25;63.19;99571.94;4997776;28;20037;-94
2023/07/15 05:10:58;;;;;;;9.57;5.95;;;;;;;24.38;62.89;99587.22;5011722;28;20087;-96
2023/07/15 05:13:25;;;;;;;10.85;5.15;;;;;;;24.41;62.88;99578.22;4995706;28;20105;-95
2023/07/15 05:15:51;;;;;;;9.00;5.63;;;;;;;24.53;62.49;99569.09;4995424;28;20160;-96
2023/07/15 05:18:17;;;;;;;10.15;5.82;;;;;;;24.60;63.20;99582.22;5013407;28;20025;-96
2023/07/15 05:20:43;;;;;;;7.93;5.78;;;;;;;24.36;63.08;99559.25;4995616;28;20037;-95
2023/07/15 05:23:09;;;;;;;7.38;5.50;;;;;;;24.37;63.78;99580.09;4994461;28;20472;-95
2023/07/15 05:25:34;;;;;;;9.82;5.30;;;;;;;24.37;63.38;99565.53;5009035;28;20047;-95
2023/07/15 05:28:00;;;;;;;7.90;5.53;;;;;;;24.39;62.69;99572.28;4994297;28;20025;-95
2023/07/15 05:30:25;;;;;;;9.45;4.90;;;;;;;24.57;61.73;99574.66;4994190;28;20048;-96
2023/07/15 05:32:51;;;;;;;7.07;5.20;;;;;;;24.39;62.71;99579.75;4992687;28;20025;-95
2023/07/15 05:35:16;;;;;;;11.45;5.60;;;;;;;24.52;62.22;99588.72;5008070;28;20036;-96
2023/07/15 05:37:43;;;;;;;10.40;6.13;;;;;;;24.46;62.41;99587.38;4989212;28;20036;-95
2023/07/15 05:40:09;;;;;;;9.10;5.45;;;;;;;24.69;62.18;99590.28;4992183;28;20047;-96
2023/07/15 05:42:40;;;;;;;9.75;5.85;;;;;;;24.91;61.22;99597.88;4993135;28;20033;-96
2023/07/15 05:45:06;;;;;;;12.10;6.43;;;;;;;25.09;60.35;99589.19;4992490;28;20045;-95
2023/07/15 05:47:32;;;;;;;10.02;6.68;;;;;;;25.29;59.54;99601.09;5024202;28;20032;-94
2023/07/15 05:49:57;;;;;;;10.98;6.38;;;;;;;25.36;59.47;99602.03;4989921;28;20471;-94
2023/07/15 05:52:23;;;;;;;12.57;6.22;;;;;;;25.23;59.93;99594.25;4990632;28;20045;-95
2023/07/15 05:54:48;;;;;;;10.55;6.25;;;;;;;25.29;59.52;99606.59;4990413;28;20041;-95
2023/07/15 05:57:14;;;;;;;10.95;5.90;;;;;;;25.29;59.65;99593.59;4991707;28;20025;-96
2023/07/15 05:59:39;;;;;;;9.27;6.20;;;;;;;25.50;58.94;99595.19;4991328;28;20025;-96
2023/07/15 06:02:05;;;;;;;13.20;6.63;;;;;;;25.56;58.05;99586.25;4991481;28;20028;-93
2023/07/15 06:04:31;;;;;;;10.45;5.57;;;;;;;25.72;58.23;99596.44;4992174;28;20064;-95
2023/07/15 06:06:57;;;;;;;13.35;5.75;;;;;;;25.84;58.47;99610.06;5006860;28;20053;-94
2023/07/15 06:09:25;;;;;;;8.70;4.97;;;;;;;25.89;57.95;99609.78;4992271;28;20056;-95
2023/07/15 06:11:50;;;;;;;9.30;5.85;;;;;;;25.94;58.01;99608.66;4989817;28;20043;-95
2023/07/15 06:14:16;;;;;;;7.90;5.93;;;;;;;26.05;57.84;99600.59;4992382;28;20025;-96
2023/07/15 06:16:41;;;;;;;9.70;6.32;;;;;;;26.15;57.69;99605.53;4991677;28;20052;-96
2023/07/15 06:19:07;;;;;;;11.40;6.05;;;;;;;26.28;56.82;99606.91;5007362;28;20017;-94
2023/07/15 06:21:33;;;;;;;11.55;5.47;;;;;;;26.31;57.88;99611.69;4992425;28;20029;-95
2023/07/15 06:23:59;;;;;;;12.68;6.57;;;;;;;26.22;57.53;99586.31;4992595;28;20110;-95
2023/07/15 06:26:25;;;;;;;12.23;6.90;;;;;;;26.27;57.72;99601.75;4992345;28;20053;-95
2023/07/15 06:28:50;;;;;;;12.88;5.22;;;;;;;26.37;57.53;99615.72;4994106;28;20083;-94
2023/07/15 06:31:16;;;;;;;9.40;4.80;;;;;;;26.28;56.88;99615.19;5007497;28;20476;-93
2023/07/15 06:33:44;;;;;;;6.85;4.95;;;;;;;26.51;56.06;99601.38;4991976;28;20030;-96
2023/07/15 06:36:10;;;;;;;12.15;4.68;;;;;;;26.76;54.66;99593.50;4994432;28;20092;-95
2023/07/15 06:41:57;;;;;;;;;;;;;;;27.07;54.61;99613.66;5042957;28;20047;-95
2023/07/15 06:44:24;;;;;;;18.88;6.28;;;;;;;27.02;54.78;99605.72;5008741;28;20015;-96
2023/07/15 06:46:50;;;;;;;9.27;4.45;;;;;;;26.98;55.16;99602.88;5008702;28;20022;-95
2023/07/15 06:49:15;;;;;;;10.68;5.15;;;;;;;27.10;55.22;99612.94;4992191;28;20033;-96
2023/07/15 06:51:41;;;;;;;8.77;5.10;;;;;;;27.13;55.40;99611.38;4992129;28;20024;-96
2023/07/15 06:54:06;;;;;;;8.68;4.57;;;;;;;27.00;54.67;99591.47;4994235;28;20021;-95
2023/07/15 06:56:32;;;;;;;6.95;4.28;;;;;;;27.30;54.67;99623.88;4992855;28;20025;-96
2023/07/15 06:58:57;;;;;;;8.95;4.68;;;;;;;27.33;53.12;99609.28;4990429;28;20092;-94
2023/07/15 07:01:23;;;;;;;12.18;5.43;;;;;;;27.34;53.84;99613.66;4989907;28;20033;-96
2023/07/15 07:03:53;;;;;;;8.50;5.22;;;;;;;27.46;53.27;99615.38;4993870;28;20032;-94
2023/07/15 07:06:47;;;;;;;6.60;4.22;;;;;;;27.56;52.19;99618.28;4995122;28;20021;-95
2023/07/15 07:09:13;;;;;;;8.85;3.63;;;;;;;27.23;50.69;99596.94;5011451;28;20059;-96
2023/07/15 07:11:39;;;;;;;7.80;4.03;;;;;;;27.64;50.12;99610.03;4994163;28;20129;-95
2023/07/15 07:14:04;;;;;;;8.43;4.32;;;;;;;27.71;51.09;99618.44;4992370;28;20474;-95
2023/07/15 07:16:30;;;;;;;5.32;3.88;;;;;;;27.48;50.65;99604.75;4991860;28;20029;-96
2023/07/15 07:18:55;;;;;;;7.55;4.30;;;;;;;27.53;50.65;99609.94;4990481;28;20025;-95
2023/07/15 07:21:24;;;;;;;10.18;4.05;;;;;;;27.74;50.06;99624.00;4991416;28;20029;-96
2023/07/15 07:23:52;;;;;;;5.28;3.70;;;;;;;27.78;48.94;99604.66;4990515;28;20022;-96
2023/07/15 07:26:18;;;;;;;15.88;4.40;;;;;;;28.04;48.80;99606.56;4991766;28;20021;-95
2023/07/15 07:28:44;;;;;;;7.05;4.05;;;;;;;28.04;48.79;99623.16;5008716;28;20044;-96
2023/07/15 07:31:13;;;;;;;10.90;4.05;;;;;;;28.23;48.80;99600.00;4992954;28;20071;-96
2023/07/15 07:33:41;;;;;;;7.03;4.20;;;;;;;28.47;49.06;99587.50;4991848;28;20037;-95
2023/07/15 07:36:07;;;;;;;10.35;3.80;;;;;;;28.58;47.35;99582.09;4993095;28;20033;-95
2023/07/15 07:38:33;;;;;;;5.88;3.50;;;;;;;28.80;46.98;99581.06;4991897;28;20116;-95
2023/07/15 07:41:05;;;;;;;6.25;3.60;;;;;;;29.10;45.61;99604.19;4993212;28;20040;-94
2023/07/15 07:43:32;;;;;;;5.18;3.30;;;;;;;29.03;44.25;99591.06;5025089;28;20025;-95
2023/07/15 07:45:57;;;;;;;9.07;3.47;;;;;;;29.03;43.87;99602.16;4992239;28;20496;-96
2023/07/15 07:48:23;;;;;;;8.00;3.45;;;;;;;28.86;44.65;99578.69;4993229;28;20033;-96
2023/07/15 07:50:52;;;;;;;5.10;3.30;;;;;;;28.85;45.28;99577.13;4993296;28;20030;-96
2023/07/15 07:53:18;;;;;;;7.57;3.25;;;;;;;29.04;43.62;99600.19;5009003;28;20061;-95
2023/07/15 07:55:43;;;;;;;9.50;3.40;;;;;;;28.96;43.50;99577.97;4994400;28;20129;-95
2023/07/15 07:58:11;;;;;;;6.97;3.28;;;;;;;29.03;43.66;99563.34;4994049;28;20041;-96
2023/07/15 08:01:00;;;;;;;;;;;;;;;;;;;;;
2023/07/15 08:03:29;;;;;;;4.20;3.10;;;;;;;29.15;42.72;99565.78;5030561;28;20109;-95
2023/07/15 08:06:05;;;;;;;7.43;3.40;;;;;;;29.17;44.05;99565.41;5015097;28;20029;-94
2023/07/15 08:08:32;;;;;;;7.22;3.38;;;;;;;29.48;43.95;99593.66;4999848;28;20030;-95
2023/07/15 08:10:58;;;;;;;10.20;3.97;;;;;;;29.31;44.29;99579.34;4996577;28;20083;-96
2023/07/15 08:13:25;;;;;;;5.63;3.30;;;;;;;29.35;43.75;99559.94;4996411;28;20088;-96
2023/07/15 08:15:50;;;;;;;9.40;3.65;;;;;;;29.55;44.32;99577.03;4997900;28;20033;-96
2023/07/15 08:18:23;;;;;;;4.80;3.35;;;;;;;29.55;44.27;99577.03;4997012;28;20018;-96
2023/07/15 08:20:54;;;;;;;6.63;3.95;;;;;;;29.80;43.49;99593.78;5002504;28;20393;-96
2023/07/15 08:23:22;;;;;;;5.97;3.47;;;;;;;29.75;43.91;99569.97;5000773;28;20061;-95
2023/07/15 08:25:48;;;;;;;5.80;3.67;;;;;;;29.76;44.72;99571.56;5014263;28;20037;-95
2023/07/15 08:31:36;;;;;;;6.57;3.60;;;;;;;29.95;43.89;99575.97;5046901;28;20093;-95
2023/07/15 08:34:03;;;;;;;4.63;2.95;;;;;;;30.10;43.89;99585.09;5010020;28;20049;-94
2023/07/15 08:36:29;;;;;;;6.40;3.15;;;;;;;30.14;43.35;99568.44;5011701;28;20040;-95
2023/07/15 08:38:54;;;;;;;5.35;3.33;;;;;;;30.37;43.25;99581.97;4992739;28;20033;-95
2023/07/15 08:41:23;;;;;;;8.57;3.80;;;;;;;30.51;43.41;99578.38;4993313;28;20059;-95
2023/07/15 08:43:49;;;;;;;7.78;4.50;;;;;;;30.59;42.30;99568.84;5013225;28;20049;-95
2023/07/15 08:46:33;;;;;;;8.02;3.95;;;;;;;30.76;43.17;99570.78;4991415;28;20083;-95
2023/07/15 08:49:04;;;;;;;8.20;4.43;;;;;;;30.93;42.47;99573.94;5002360;28;20035;-96
2023/07/15 08:51:37;;;;;;;3.85;2.95;;;;;;;31.06;42.08;99577.88;5010406;28;20061;-95
2023/07/15 08:54:03;;;;;;;5.55;2.92;;;;;;;31.05;41.39;99576.28;5007401;28;20032;-96
2023/07/15 08:56:34;;;;;;;8.38;3.70;;;;;;;30.93;41.81;99557.25;4990989;28;20057;-96
2023/07/15 09:09:34;;;;;;;6.32;3.40;;;;;;;31.58;40.79;99574.47;6092714;22;20093;-92
2023/07/15 09:12:01;;;;;;;7.18;3.85;;;;;;;31.60;41.19;99564.53;5008586;28;20034;-93
2023/07/15 09:14:26;;;;;;;7.82;3.70;;;;;;;31.59;40.35;99556.59;4987863;28;20026;-91
2023/07/15 09:16:52;;;;;;;7.40;3.60;;;;;;;31.57;40.30;99562.56;4988227;28;20029;-93
2023/07/15 09:19:24;;;;;;;7.78;3.83;;;;;;;31.57;39.92;99551.44;4987832;28;20026;-92
2023/07/15 09:21:54;;;;;;;5.43;3.25;;;;;;;31.90;39.69;99551.22;4972258;28;20456;-92
2023/07/15 09:24:40;;;;;;;11.00;3.80;;;;;;;31.95;40.16;99548.78;4972647;28;20029;-92
2023/07/15 09:27:08;;;;;;;10.55;3.58;;;;;;;32.08;39.70;99556.66;4987709;28;20121;-92
2023/07/15 09:29:34;;;;;;;6.97;4.15;;;;;;;32.21;39.32;99560.56;4988509;28;20087;-91
2023/07/15 09:32:04;;;;;;;8.25;3.50;;;;;;;32.33;39.14;99562.84;4988717;28;20026;-91
2023/07/15 09:34:32;;;;;;;4.43;3.40;;;;;;;32.36;39.16;99547.28;4973552;28;20484;-91
2023/07/15 09:36:58;;;;;;;7.70;3.28;;;;;;;32.34;39.39;99539.31;4988714;28;20034;-91
2023/07/15 09:39:26;;;;;;;6.72;3.85;;;;;;;32.35;39.87;99545.69;4991055;28;20026;-91
2023/07/15 09:42:05;;;;;;;5.30;3.15;;;;;;;32.38;39.32;99553.22;4989643;28;20033;-91
2023/07/15 09:44:38;;;;;;;6.28;3.50;;;;;;;32.30;39.24;99557.28;4972311;28;20033;-91
2023/07/15 09:47:04;;;;;;;8.40;3.08;;;;;;;32.38;38.56;99558.81;4972183;28;20411;-91
2023/07/15 09:49:29;;;;;;;6.43;3.53;;;;;;;32.25;38.90;99546.56;4990210;28;20018;-91
2023/07/15 09:51:56;;;;;;;6.35;2.70;;;;;;;32.48;38.44;99551.53;4989892;28;20026;-91
2023/07/15 09:54:22;;;;;;;6.20;2.97;;;;;;;32.43;37.52;99545.19;4989132;28;20030;-91
2023/07/15 09:56:47;;;;;;;6.38;2.90;;;;;;;32.50;37.82;99558.28;4989667;28;20044;-91
2023/07/15 09:59:13;;;;;;;8.43;3.00;;;;;;;32.53;37.56;99560.25;4974950;28;20089;-91
2023/07/15 10:01:43;;;;;;;4.30;2.78;;;;;;;32.53;37.21;99549.09;5006279;28;20053;-91
2023/07/15 10:04:25;;;;;;;4.85;2.67;;;;;;;32.61;37.63;99570.16;4991350;28;20472;-92
2023/07/15 10:06:53;;;;;;;4.32;2.58;;;;;;;32.41;37.68;99550.38;4991718;28;20026;-92
2023/07/15 10:09:21;;;;;;;3.35;2.45;;;;;;;32.40;37.10;99536.88;4990646;28;20026;-91
2023/07/15 10:11:53;;;;;;;6.00;2.80;;;;;;;32.56;36.70;99545.53;4990998;28;20030;-91
2023/07/15 10:14:22;;;;;;;7.07;2.60;;;;;;;32.55;37.17;99532.78;4976461;28;20022;-90
2023/07/15 10:17:07;;;;;;;6.85;2.80;;;;;;;32.48;36.78;99555.13;4992654;28;20162;-91
2023/07/15 10:19:54;;;;;;;5.95;2.47;;;;;;;32.57;35.86;99538.72;4992833;28;20030;-91
2023/07/15 10:22:21;;;;;;;3.42;2.35;;;;;;;32.59;35.84;99555.03;4978990;28;20041;-93
2023/07/15 10:25:00;;;;;;;5.57;2.67;;;;;;;32.52;36.45;99549.50;4992751;28;20032;-93
2023/07/15 10:27:27;;;;;;;4.35;2.60;;;;;;;32.50;37.02;99532.38;4979161;28;20057;-93
2023/07/15 10:30:14;;;;;;;5.43;2.58;;;;;;;32.70;36.15;99541.78;4975358;28;20029;-92
2023/07/15 10:33:10;;;;;;;4.05;2.70;;;;;;;32.66;36.33;99523.50;5005276;28;20092;-94
2023/07/15 10:35:46;;;;;;;5.00;2.70;;;;;;;32.68;37.01;99533.03;5005321;28;20032;-93
2023/07/15 10:38:23;;;;;;;8.98;3.15;;;;;;;32.82;36.21;99518.13;4991106;28;20029;-93
2023/07/15 10:40:49;;;;;;;3.25;2.60;;;;;;;32.94;36.65;99514.03;4991746;28;20041;-93
2023/07/15 10:43:22;;;;;;;7.93;2.60;;;;;;;33.17;35.32;99510.56;4991902;28;20491;-93
2023/07/15 10:46:11;;;;;;;6.80;2.75;;;;;;;33.02;35.31;99507.16;4992597;28;20033;-94
2023/07/15 10:48:37;;;;;;;5.50;2.95;;;;;;;33.18;35.60;99509.34;4986890;28;20041;-93
2023/07/15 10:51:05;;;;;;;7.07;2.63;;;;;;;33.29;34.91;99506.41;4978572;28;20534;-93
2023/07/15 10:56:23;;;;;;;6.95;2.75;;;;;;;33.57;34.46;99514.38;5347347;23;20108;-96
2023/07/15 10:58:57;;;;;;;5.63;2.58;;;;;;;33.67;33.27;99507.06;4999846;28;20026;-95
2023/07/15 11:01:36;;;;;;;4.43;2.72;;;;;;;33.81;33.58;99508.84;4997839;28;20041;-96
2023/07/15 11:04:06;;;;;;;4.57;2.60;;;;;;;33.79;33.23;99505.69;5011915;28;20049;-96
2023/07/15 11:06:34;;;;;;;5.03;2.75;;;;;;;33.80;32.82;99501.69;4998670;28;20034;-96
2023/07/15 11:09:16;;;;;;;5.68;2.67;;;;;;;34.05;33.02;99504.06;5001148;28;20095;-94
2023/07/15 11:11:44;;;;;;;9.88;3.03;;;;;;;33.78;33.33;99502.09;5003112;28;20060;-96
2023/07/15 11:14:22;;;;;;;5.50;3.15;;;;;;;34.07;33.49;99517.59;5000160;28;20038;-96
2023/07/15 11:16:51;;;;;;;6.50;2.75;;;;;;;33.93;32.92;99508.25;5027114;28;20029;-91
2023/07/15 11:19:17;;;;;;;7.68;3.00;;;;;;;33.87;33.43;99504.38;4993284;28;20021;-93
2023/07/15 11:21:47;;;;;;;6.63;3.08;;;;;;;33.90;34.75;99499.94;4995638;28;20030;-90
2023/07/15 11:24:13;;;;;;;7.37;3.03;;;;;;;34.05;35.05;99501.25;4994103;28;20037;-90
2023/07/15 11:26:40;;;;;;;6.78;2.83;;;;;;;34.07;33.87;99493.22;4992698;28;20499;-90
2023/07/15 11:29:22;;;;;;;6.93;2.85;;;;;;;34.15;33.84;99496.72;4992931;28;20476;-90
2023/07/15 11:31:48;;;;;;;8.23;2.70;;;;;;;34.31;33.26;99496.84;4995305;28;20037;-90
2023/07/15 11:34:18;;;;;;;11.77;2.60;;;;;;;34.13;33.61;99499.16;4995487;28;20034;-90
2023/07/15 11:36:44;;;;;;;6.13;2.85;;;;;;;34.32;34.10;99487.22;4994425;28;20025;-90
2023/07/15 11:39:10;;;;;;;7.25;2.90;;;;;;;34.46;34.11;99497.34;4994959;28;20025;-90
2023/07/15 11:41:45;;;;;;;6.55;2.80;;;;;;;34.35;35.36;99482.81;4994869;28;20044;-90
2023/07/15 11:44:14;;;;;;;6.43;3.42;;;;;;;34.30;34.17;99470.09;4997990;28;20041;-90
2023/07/15 11:46:44;;;;;;;7.30;2.73;;;;;;;34.33;34.43;99474.06;5012214;28;20036;-90
2023/07/15 11:49:10;;;;;;;6.95;3.35;;;;;;;34.28;34.61;99466.94;4995255;28;20026;-91
2023/07/15 11:51:42;;;;;;;4.57;3.28;;;;;;;34.33;35.42;99468.47;4995323;28;20036;-92
2023/07/15 11:54:09;;;;;;;5.55;3.38;;;;;;;34.09;34.63;99462.88;4994113;28;20092;-91